createdAt,value
2023-02-26T00:03:00.574Z,67.04
2023-02-26T00:06:03.577Z,67.15
2023-02-26T00:09:06.059Z,67.22
2023-02-26T00:12:12.588Z,67.64
2023-02-26T00:15:17.746Z,67.61
2023-02-26T00:18:20.647Z,67.53
2023-02-26T00:21:24.680Z,67.92
2023-02-26T00:24:27.277Z,68.60
2023-02-26T00:27:29.564Z,68.62
2023-02-26T00:30:32.786Z,68.32
2023-02-26T00:33:35.943Z,67.80
2023-02-26T00:37:13.211Z,67.41
2023-02-26T00:40:22.846Z,67.77
2023-02-26T00:43:28.810Z,68.06
2023-02-26T00:46:46.486Z,66.95
2023-02-26T00:50:19.800Z,66.90
2023-02-26T00:53:45.028Z,67.33
2023-02-26T00:56:49.459Z,66.99
2023-02-26T00:59:51.745Z,67.58
2023-02-26T01:02:55.661Z,67.35
2023-02-26T01:05:58.110Z,66.45
2023-02-26T01:09:07.824Z,66.62
2023-02-26T01:12:17.461Z,66.40
2023-02-26T01:15:20.512Z,66.24
2023-02-26T01:18:36.998Z,66.36
2023-02-26T01:21:44.332Z,66.37
2023-02-26T01:24:49.328Z,66.09
2023-02-26T01:27:53.594Z,66.38
2023-02-26T01:31:02.781Z,65.44
2023-02-26T01:34:37.032Z,65.94
2023-02-26T01:37:58.291Z,65.53
2023-02-26T01:41:18.307Z,65.14
2023-02-26T01:44:35.272Z,64.83
2023-02-26T01:47:49.728Z,65.20
2023-02-26T01:50:52.030Z,65.42
2023-02-26T01:53:55.522Z,65.46
2023-02-26T01:57:06.074Z,64.66
2023-02-26T02:00:09.807Z,65.17
2023-02-26T02:03:14.462Z,65.67
2023-02-26T02:06:24.593Z,65.16
2023-02-26T02:09:27.398Z,64.69
2023-02-26T02:12:38.328Z,65.05
2023-02-26T02:15:53.599Z,64.86
2023-02-26T02:19:41.313Z,63.80
2023-02-26T02:23:02.866Z,63.84
2023-02-26T02:26:07.547Z,64.60
2023-02-26T02:30:04.808Z,64.08
2023-02-26T02:33:16.231Z,64.31
2023-02-26T02:36:40.736Z,65.17
2023-02-26T02:39:56.752Z,64.99
2023-02-26T02:43:08.275Z,66.36
2023-02-26T02:46:16.722Z,66.43
2023-02-26T02:49:27.372Z,66.36
2023-02-26T02:52:54.484Z,67.45
2023-02-26T02:56:07.324Z,66.85
2023-02-26T02:59:21.884Z,68.39
2023-02-26T03:02:38.439Z,68.29
2023-02-26T03:05:40.820Z,68.53
2023-02-26T03:08:44.913Z,68.40
2023-02-26T03:11:47.404Z,66.98
2023-02-26T03:14:50.476Z,66.95
2023-02-26T03:18:06.938Z,67.28
2023-02-26T03:21:20.306Z,66.61
2023-02-26T03:24:34.331Z,67.46
2023-02-26T03:28:05.390Z,68.57
2023-02-26T03:31:22.906Z,68.96
2023-02-26T03:34:36.639Z,69.23
2023-02-26T03:37:45.622Z,68.65
2023-02-26T03:40:55.167Z,68.16
2023-02-26T03:44:08.434Z,68.14
2023-02-26T03:47:15.293Z,67.98
2023-02-26T03:50:19.259Z,68.39
2023-02-26T03:53:25.658Z,68.39
2023-02-26T03:56:38.345Z,68.85
2023-02-26T03:59:42.236Z,69.29
2023-02-26T04:02:51.763Z,69.49
2023-02-26T04:05:55.531Z,69.38
2023-02-26T04:08:58.206Z,68.67
2023-02-26T04:12:00.898Z,70.11
2023-02-26T04:15:05.281Z,70.27
2023-02-26T04:18:08.001Z,70.95
2023-02-26T04:21:20.429Z,70.30
2023-02-26T04:24:23.290Z,71.70
2023-02-26T04:27:26.055Z,70.07
2023-02-26T04:30:28.992Z,70.16
2023-02-26T04:33:32.504Z,70.69
2023-02-26T04:36:35.063Z,70.11
2023-02-26T04:39:37.356Z,70.49
2023-02-26T04:42:39.941Z,70.99
2023-02-26T04:45:42.215Z,71.35
2023-02-26T04:48:44.895Z,71.60
2023-02-26T04:51:47.115Z,71.61
2023-02-26T04:54:50.613Z,71.49
2023-02-26T04:57:53.547Z,70.94
2023-02-26T05:00:58.154Z,71.03
2023-02-26T05:04:01.365Z,71.18
2023-02-26T05:07:05.045Z,71.92
2023-02-26T05:10:08.293Z,72.00
2023-02-26T05:13:10.907Z,72.07
2023-02-26T05:16:13.370Z,72.69
2023-02-26T05:19:16.964Z,71.32
2023-02-26T05:22:21.057Z,72.18
2023-02-26T05:25:24.026Z,71.63
2023-02-26T05:28:27.907Z,72.82
2023-02-26T05:31:30.594Z,73.02
2023-02-26T05:34:33.419Z,72.14
2023-02-26T05:37:36.663Z,72.10
2023-02-26T05:40:38.988Z,71.91
2023-02-26T05:43:42.047Z,72.71
2023-02-26T05:46:44.307Z,72.55
2023-02-26T05:49:46.927Z,72.31
2023-02-26T05:52:49.239Z,72.40
2023-02-26T05:55:53.863Z,73.67
2023-02-26T05:58:56.196Z,73.94
2023-02-26T06:01:58.904Z,74.39
2023-02-26T06:05:01.707Z,74.34
2023-02-26T06:08:05.677Z,75.07
2023-02-26T06:11:08.443Z,75.34
2023-02-26T06:14:10.893Z,74.23
2023-02-26T06:17:13.603Z,74.35
2023-02-26T06:20:16.253Z,73.85
2023-02-26T06:23:19.055Z,74.02
2023-02-26T06:26:23.722Z,73.41
2023-02-26T06:29:26.733Z,72.47
2023-02-26T06:32:30.704Z,73.00
2023-02-26T06:35:33.545Z,71.66
2023-02-26T06:38:35.822Z,71.39
2023-02-26T06:41:38.528Z,71.82
2023-02-26T06:44:40.832Z,71.20
2023-02-26T06:47:43.457Z,71.66
2023-02-26T06:50:45.784Z,71.25
2023-02-26T06:53:48.415Z,71.75
2023-02-26T06:56:50.781Z,72.18
2023-02-26T06:59:53.486Z,71.42
2023-02-26T07:02:55.913Z,71.17
2023-02-26T07:06:06.441Z,70.41
2023-02-26T07:09:16.584Z,69.90
2023-02-26T07:12:19.386Z,69.87
2023-02-26T07:15:22.199Z,68.75
2023-02-26T07:18:24.856Z,68.67
2023-02-26T07:21:27.201Z,67.98
2023-02-26T07:24:29.945Z,69.38
2023-02-26T07:27:33.440Z,68.44
2023-02-26T07:30:36.267Z,67.07
2023-02-26T07:33:39.736Z,66.94
2023-02-26T07:36:42.311Z,67.32
2023-02-26T07:39:45.490Z,66.17
2023-02-26T07:42:48.152Z,65.11
2023-02-26T07:45:51.932Z,64.79
2023-02-26T07:48:55.261Z,61.92
2023-02-26T07:51:57.537Z,61.58
2023-02-26T07:55:02.110Z,61.33
2023-02-26T07:58:04.412Z,61.46
2023-02-26T08:01:07.326Z,61.24
2023-02-26T08:04:10.253Z,59.45
2023-02-26T08:07:12.644Z,57.38
2023-02-26T08:10:15.285Z,56.26
2023-02-26T08:13:18.169Z,56.19
2023-02-26T08:16:21.230Z,57.17
2023-02-26T08:19:23.819Z,58.08
2023-02-26T08:22:27.057Z,57.23
2023-02-26T08:25:29.502Z,57.71
2023-02-26T08:28:32.929Z,57.51
2023-02-26T08:31:35.579Z,58.10
2023-02-26T08:34:38.305Z,57.80
2023-02-26T08:37:40.723Z,57.71
2023-02-26T08:40:44.016Z,57.34
2023-02-26T08:43:46.261Z,58.49
2023-02-26T08:46:48.934Z,58.45
2023-02-26T08:49:51.448Z,58.04
2023-02-26T08:52:54.304Z,57.02
2023-02-26T08:55:56.518Z,57.81
2023-02-26T08:58:59.218Z,58.26
2023-02-26T09:02:01.668Z,58.05
2023-02-26T09:05:05.689Z,57.95
2023-02-26T09:08:08.759Z,57.13
2023-02-26T09:11:11.498Z,56.67
2023-02-26T09:14:13.811Z,55.78
2023-02-26T09:17:16.468Z,55.43
2023-02-26T09:20:18.881Z,56.47
2023-02-26T09:23:21.583Z,57.21
2023-02-26T09:26:24.006Z,57.20
2023-02-26T09:29:27.146Z,55.39
2023-02-26T09:32:29.691Z,55.97
2023-02-26T09:35:32.453Z,57.18
2023-02-26T09:38:35.930Z,57.67
2023-02-26T09:41:43.092Z,57.50
2023-02-26T09:44:46.170Z,56.78
2023-02-26T09:47:53.045Z,56.82
2023-02-26T09:50:58.333Z,56.27
2023-02-26T09:54:05.667Z,56.54
2023-02-26T09:57:15.356Z,55.27
2023-02-26T10:00:27.936Z,55.61
2023-02-26T10:03:58.418Z,55.19
2023-02-26T10:07:19.517Z,54.43
2023-02-26T10:10:39.213Z,54.58
2023-02-26T10:13:57.504Z,53.15
2023-02-26T10:17:06.194Z,55.20
2023-02-26T10:20:25.776Z,55.31
2023-02-26T10:23:39.184Z,54.18
2023-02-26T10:26:58.679Z,54.04
2023-02-26T10:30:07.836Z,53.12
2023-02-26T10:33:22.543Z,53.32
2023-02-26T10:36:25.205Z,51.93
2023-02-26T10:39:53.822Z,53.08
2023-02-26T10:43:09.729Z,51.81
2023-02-26T10:46:33.838Z,52.00
2023-02-26T10:50:01.637Z,52.00
2023-02-26T10:53:04.223Z,52.83
2023-02-26T10:56:12.038Z,51.97
2023-02-26T10:59:16.439Z,52.09
2023-02-26T11:02:32.789Z,51.72
2023-02-26T11:05:35.582Z,51.99
2023-02-26T11:08:45.171Z,52.30
2023-02-26T11:11:52.772Z,50.95
2023-02-26T11:14:55.521Z,50.51
2023-02-26T11:18:00.051Z,50.23
2023-02-26T11:21:05.294Z,51.03
2023-02-26T11:24:30.647Z,50.93
2023-02-26T11:27:38.431Z,53.62
2023-02-26T11:30:44.723Z,53.61
2023-02-26T11:33:57.256Z,54.06
2023-02-26T11:37:01.573Z,53.44
2023-02-26T11:40:14.727Z,54.06
2023-02-26T11:43:20.409Z,53.59
2023-02-26T11:46:25.417Z,54.00
2023-02-26T11:49:29.514Z,55.18
2023-02-26T11:52:44.386Z,56.64
2023-02-26T11:55:53.116Z,55.33
2023-02-26T11:59:00.670Z,55.14
2023-02-26T12:02:14.205Z,55.31
2023-02-26T12:05:18.224Z,53.17
2023-02-26T12:08:27.698Z,54.36
2023-02-26T12:11:39.441Z,53.79
2023-02-26T12:14:46.566Z,53.55
2023-02-26T12:18:03.233Z,53.22
2023-02-26T12:21:27.754Z,52.65
2023-02-26T12:24:41.870Z,53.25
2023-02-26T12:28:00.314Z,54.10
2023-02-26T12:31:19.739Z,54.67
2023-02-26T12:34:37.628Z,54.84
2023-02-26T12:38:19.336Z,54.42
2023-02-26T12:41:42.593Z,54.83
2023-02-26T12:45:00.590Z,53.19
2023-02-26T12:48:02.925Z,55.12
2023-02-26T12:51:25.102Z,53.75
2023-02-26T12:54:42.079Z,53.51
2023-02-26T12:58:03.578Z,52.95
2023-02-26T13:01:59.622Z,53.79
2023-02-26T13:05:45.807Z,53.15
2023-02-26T13:09:02.295Z,51.77
2023-02-26T13:12:22.184Z,51.65
2023-02-26T13:15:53.585Z,51.01
2023-02-26T13:19:11.642Z,50.95
2023-02-26T13:22:25.945Z,51.28
2023-02-26T13:25:34.760Z,52.26
2023-02-26T13:28:45.114Z,52.78
2023-02-26T13:32:05.489Z,53.40
2023-02-26T13:35:20.283Z,52.96
2023-02-26T13:38:44.889Z,53.09
2023-02-26T13:41:57.780Z,54.03
2023-02-26T13:45:38.780Z,54.29
2023-02-26T13:49:12.278Z,53.94
2023-02-26T13:52:30.361Z,55.41
2023-02-26T13:55:41.809Z,56.63
2023-02-26T13:59:08.701Z,58.18
2023-02-26T14:02:20.029Z,59.30
2023-02-26T14:05:52.577Z,59.81
2023-02-26T14:08:57.011Z,59.53
2023-02-26T14:12:15.861Z,59.88
2023-02-26T14:15:28.663Z,61.17
2023-02-26T14:18:37.798Z,59.92
2023-02-26T14:21:53.225Z,59.50
2023-02-26T14:25:16.382Z,59.90
2023-02-26T14:28:40.438Z,58.99
2023-02-26T14:32:12.439Z,57.54
2023-02-26T14:35:20.226Z,58.04
2023-02-26T14:38:36.143Z,57.45
2023-02-26T14:41:41.749Z,58.77
2023-02-26T14:44:49.425Z,58.96
2023-02-26T14:47:51.961Z,59.26
2023-02-26T14:51:19.774Z,60.09
2023-02-26T14:54:31.345Z,60.87
2023-02-26T14:58:10.735Z,61.75
2023-02-26T15:01:28.030Z,61.71
2023-02-26T15:04:43.133Z,60.90
2023-02-26T15:08:08.340Z,60.00
2023-02-26T15:11:38.350Z,58.31
2023-02-26T15:14:40.548Z,58.72
2023-02-26T15:17:56.324Z,59.10
2023-02-26T15:21:11.378Z,59.62
2023-02-26T15:24:16.002Z,59.23
2023-02-26T15:27:20.560Z,58.71
2023-02-26T15:30:24.329Z,59.29
2023-02-26T15:33:27.198Z,58.87
2023-02-26T15:36:31.539Z,59.19
2023-02-26T15:39:33.861Z,59.16
2023-02-26T15:42:39.719Z,58.07
2023-02-26T15:45:44.965Z,59.32
2023-02-26T15:48:47.797Z,58.87
2023-02-26T15:51:55.133Z,59.61
2023-02-26T15:55:05.950Z,58.80
2023-02-26T15:58:08.824Z,58.91
2023-02-26T16:01:20.676Z,59.63
2023-02-26T16:04:24.253Z,59.43
2023-02-26T16:07:26.814Z,59.45
2023-02-26T16:10:32.978Z,60.59
2023-02-26T16:13:40.774Z,60.67
2023-02-26T16:16:49.476Z,60.26
2023-02-26T16:19:53.763Z,59.82
2023-02-26T16:23:02.321Z,58.60
2023-02-26T16:26:08.263Z,58.74
2023-02-26T16:29:21.016Z,59.27
2023-02-26T16:32:25.955Z,58.66
2023-02-26T16:35:34.891Z,59.03
2023-02-26T16:38:46.597Z,58.38
2023-02-26T16:42:02.637Z,57.85
2023-02-26T16:45:17.184Z,58.30
2023-02-26T16:48:28.581Z,58.63
2023-02-26T16:51:34.694Z,58.61
2023-02-26T16:54:41.077Z,58.64
2023-02-26T16:57:44.832Z,58.20
2023-02-26T17:00:52.383Z,58.24
2023-02-26T17:04:02.156Z,58.93
2023-02-26T17:07:46.050Z,58.50
2023-02-26T17:10:54.118Z,58.71
2023-02-26T17:14:10.034Z,58.80
2023-02-26T17:17:12.515Z,58.74
2023-02-26T17:20:15.414Z,58.68
2023-02-26T17:23:19.598Z,58.50
2023-02-26T17:26:23.582Z,58.89
2023-02-26T17:29:34.157Z,58.60
2023-02-26T17:32:36.888Z,58.91
2023-02-26T17:35:39.789Z,59.04
2023-02-26T17:38:47.019Z,59.79
2023-02-26T17:41:49.430Z,60.38
2023-02-26T17:44:52.977Z,61.23
2023-02-26T17:47:55.704Z,60.33
2023-02-26T17:50:58.456Z,61.11
2023-02-26T17:54:00.799Z,61.28
2023-02-26T17:57:04.230Z,61.69
2023-02-26T18:00:07.218Z,61.86
2023-02-26T18:03:17.355Z,61.84
2023-02-26T18:06:21.252Z,61.56
2023-02-26T18:09:23.636Z,62.47
2023-02-26T18:12:26.388Z,62.41
2023-02-26T18:15:29.039Z,62.68
2023-02-26T18:18:33.420Z,62.93
2023-02-26T18:21:35.842Z,62.72
2023-02-26T18:24:40.172Z,62.74
2023-02-26T18:27:43.586Z,62.29
2023-02-26T18:30:47.258Z,62.35
2023-02-26T18:33:49.623Z,61.86
2023-02-26T18:36:52.609Z,61.51
2023-02-26T18:39:55.903Z,61.47
2023-02-26T18:42:58.628Z,61.24
2023-02-26T18:46:02.106Z,61.67
2023-02-26T18:49:05.462Z,61.75
2023-02-26T18:52:08.180Z,61.78
2023-02-26T18:55:12.480Z,61.49
2023-02-26T18:58:14.826Z,60.75
2023-02-26T19:01:17.622Z,61.03
2023-02-26T19:04:20.009Z,61.55
2023-02-26T19:07:22.828Z,61.15
2023-02-26T19:10:25.249Z,60.32
2023-02-26T19:13:29.084Z,60.06
2023-02-26T19:16:35.278Z,60.44
2023-02-26T19:19:40.534Z,60.54
2023-02-26T19:22:43.429Z,60.68
2023-02-26T19:25:46.284Z,61.83
2023-02-26T19:28:48.904Z,60.69
2023-02-26T19:31:51.954Z,61.70
2023-02-26T19:34:54.478Z,61.74
2023-02-26T19:37:57.282Z,62.30
2023-02-26T19:40:59.991Z,63.32
2023-02-26T19:44:05.380Z,64.13
2023-02-26T19:47:07.898Z,63.75
2023-02-26T19:50:11.470Z,63.55
2023-02-26T19:53:15.833Z,64.70
2023-02-26T19:56:18.586Z,62.76
2023-02-26T19:59:20.983Z,63.27
2023-02-26T20:02:23.839Z,63.62
2023-02-26T20:05:26.787Z,63.51
2023-02-26T20:08:30.427Z,63.75
2023-02-26T20:11:34.638Z,63.42
2023-02-26T20:14:37.294Z,64.49
2023-02-26T20:17:40.200Z,64.00
2023-02-26T20:20:43.134Z,64.68
2023-02-26T20:23:45.844Z,63.94
2023-02-26T20:26:49.129Z,62.78
2023-02-26T20:29:51.854Z,59.34
2023-02-26T20:32:54.337Z,59.43
2023-02-26T20:35:57.347Z,60.05
2023-02-26T20:39:02.556Z,59.01
2023-02-26T20:42:05.873Z,58.30
2023-02-26T20:45:08.492Z,58.84
2023-02-26T20:48:11.538Z,56.51
2023-02-26T20:51:15.572Z,57.71
2023-02-26T20:54:20.245Z,57.08
2023-02-26T20:57:22.673Z,56.82
2023-02-26T21:00:25.761Z,58.04
2023-02-26T21:03:28.306Z,56.99
2023-02-26T21:06:32.409Z,56.21
2023-02-26T21:09:34.889Z,56.25
2023-02-26T21:12:37.796Z,55.95
2023-02-26T21:15:40.397Z,55.94
2023-02-26T21:18:43.172Z,53.15
2023-02-26T21:21:45.446Z,51.84
2023-02-26T21:24:48.242Z,52.40
2023-02-26T21:27:50.669Z,51.73
2023-02-26T21:30:54.203Z,53.10
2023-02-26T21:33:56.718Z,52.55
2023-02-26T21:37:00.476Z,52.23
2023-02-26T21:40:06.451Z,53.33
2023-02-26T21:43:10.570Z,52.98
2023-02-26T21:46:12.964Z,52.79
2023-02-26T21:49:15.945Z,52.65
2023-02-26T21:52:18.438Z,51.53
2023-02-26T21:55:21.161Z,51.76
2023-02-26T21:58:24.175Z,51.56
2023-02-26T22:01:27.216Z,51.37
2023-02-26T22:04:30.216Z,51.46
2023-02-26T22:07:32.713Z,51.36
2023-02-26T22:10:35.606Z,51.41
2023-02-26T22:13:38.043Z,51.98
2023-02-26T22:16:41.012Z,52.59
2023-02-26T22:19:43.480Z,52.66
2023-02-26T22:22:46.287Z,52.56
2023-02-26T22:25:48.588Z,52.50
2023-02-26T22:28:51.371Z,53.03
2023-02-26T22:31:54.263Z,53.39
2023-02-26T22:34:58.358Z,53.19
2023-02-26T22:38:00.773Z,53.36
2023-02-26T22:41:03.564Z,53.16
2023-02-26T22:44:06.355Z,53.73
2023-02-26T22:47:10.319Z,53.28
2023-02-26T22:50:14.494Z,54.16
2023-02-26T22:53:17.333Z,54.10
2023-02-26T22:56:20.495Z,54.30
2023-02-26T22:59:23.363Z,53.61
2023-02-26T23:02:25.789Z,53.80
2023-02-26T23:05:28.749Z,53.74
2023-02-26T23:08:31.176Z,53.69
2023-02-26T23:11:33.984Z,53.32
2023-02-26T23:14:36.729Z,54.01
2023-02-26T23:17:40.509Z,54.03
2023-02-26T23:20:42.960Z,53.97
2023-02-26T23:23:45.702Z,53.84
2023-02-26T23:26:48.349Z,53.93
2023-02-26T23:29:51.268Z,54.54
2023-02-26T23:32:54.970Z,54.23
2023-02-26T23:35:57.849Z,54.38
2023-02-26T23:39:00.336Z,54.65
2023-02-26T23:42:03.247Z,54.26
2023-02-26T23:45:08.007Z,54.47
2023-02-26T23:48:10.813Z,54.18
2023-02-26T23:51:13.199Z,54.68
2023-02-26T23:54:16.033Z,54.76
2023-02-26T23:57:18.444Z,54.52
